Pisek, ND (58273)

10:15 PM CDT on March 24, 2017 (GMT -0500)
Rural | | Change Station
Active Advisory: Flood Watch Active Notice: Flood Watch

Elev 869 ft 48.18 °N, 97.47 °W | Updated 11 seconds ago

Clear
Clear
27.9 °F
Feels Like 28 °F
N
0.0
Wind Variable Wind from SW
Gusts 0.0 mph

Today
High -- | Low -- °F
--% Chance of Precip.
Yesterday
High -- | Low -- °F
Precip. -- in
Pressure 30.26 in
Visibility 10.0 miles
Clouds Clear
Windchill 28 °F
Dew Point 26 °F
Humidity 92%
Rainfall 0.00 in
Snow Depth Not available.
7:24 AM 7:50 PM
Waning Crescent, 11% visible
METAR KGAF 250315Z AUTO 01004KT 10SM CLR M01/M01 A3026 RMK AO2
Pressure 30.26 in
Visibility 10.0 miles
Clouds Clear
Windchill 28 °F
Dew Point 26 °F
Humidity 92%
Rainfall 0.00 in
Snow Depth Not available.
7:24 AM 7:50 PM
Waning Crescent, 11% visible
METAR KGAF 250315Z AUTO 01004KT 10SM CLR M01/M01 A3026 RMK AO2

Get Your Daily Forecast Email!

Thanks for signing up!

Be on the lookout for a verification email in your inbox.

You'll start receiving severe weather alerts in your inbox..

×

10-Day Weather Forecast

Almanac

Astronomy

Mar. 24, 2017 Rise Set
Actual Time
Civil Twilight
Nautical Twilight
Astronomical Twilight
Moon
Length of Visible Light
Length of Day
Tomorrow will be .
, % of the Moon is Illuminated

Today's Extremes

State Highs State Lows

Community

WunderPhotos

Upload Photos

1,962,540 photos uploaded!

WunderBlog® & News

Nearby

Air Quality

  Air Quality AQ Index Pollutant
Not available.

Snow Depth

Station Depth Elevation

Earthquake Activity

City Distance Mag. Time & Date
Minimum magnitude displayed is 2.5.

Earthquake Activity

City Distance Mag. Time & Date
Minimum magnitude displayed is 2.5.

Coastal Water Temperatures

Place Temperature

Stations

Nearby Weather Stations

Station Location Temp. Windchill Dew Point Humidity Wind Precip. Elev Updated Type
                   

Watches & Warnings

Flood Watch
Issued: 8:26 PM CDT Mar. 24, 2017 – National Weather Service

The Flood Watch continues for
the Park River at Grafton
* from Wednesday afternoon until further notice.
* At 7:30 PM Friday the stage was 9.0 feet.
* Major flooding is possible.
* Flood stage is 12.0 feet.
* Forecast... the river may reach minor flood stage by Wednesday
afternoon and major flood stage by Friday afternoon.


Daily 7pm CDT/6pm CST forecast stage in feet:

date Sat sun Mon Tue Wed Thu Fri
(month/day) 03/25 03/26 03/27 03/28 03/29 03/30 03/31
Grafton 8.8 8.9 9.8 11.0 12.2 13.4 14.6
lat... Lon 4850 9749 4839 9750 4842 9716 4851 9715